Time;durP1;ratioP1;P1;durP2;ratioP2;P2;SDS_P1;SDS_P2;PMS_P1;PMS_P2;Temp;Humidity;BMP_temperature;BMP_pressure;BME280_temperature;BME280_humidity;BME280_pressure;Samples;Min_cycle;Max_cycle;Signal;HPM_P1;HPM_P2
2022/07/30 00:02:15;;;;;;;0.80;0.80;;;;;;;19.50;89.54;95500.47;4272225;33;20219;-59
2022/07/30 00:04:41;;;;;;;0.30;0.30;;;;;;;19.34;90.32;95486.94;4285397;33;22771;-59
2022/07/30 00:07:07;;;;;;;0.47;0.47;;;;;;;19.36;90.04;95486.59;4288127;33;20201;-59
2022/07/30 00:09:32;;;;;;;0.10;0.10;;;;;;;19.40;89.92;95482.09;4288276;33;20179;-59
2022/07/30 00:11:57;;;;;;;0.77;0.67;;;;;;;19.47;89.51;95484.97;4285044;33;20198;-60
2022/07/30 00:14:23;;;;;;;0.43;0.43;;;;;;;19.38;89.76;95487.81;4286515;33;20178;-60
2022/07/30 00:16:48;;;;;;;0.20;0.20;;;;;;;19.23;90.36;95483.97;4289350;33;20202;-60
2022/07/30 00:19:14;;;;;;;1.60;0.73;;;;;;;19.55;89.33;95481.34;4285661;33;20205;-59
2022/07/30 00:21:39;;;;;;;0.40;0.40;;;;;;;19.54;89.34;95480.56;4284615;33;20225;-60
2022/07/30 00:24:06;;;;;;;0.20;0.20;;;;;;;19.51;89.12;95486.66;4273622;33;20179;-59
2022/07/30 00:26:31;;;;;;;1.50;0.43;;;;;;;19.39;89.06;95483.22;4275023;33;20205;-59
2022/07/30 00:28:56;;;;;;;0.30;0.30;;;;;;;19.60;89.02;95480.31;4287601;33;20440;-59
2022/07/30 00:31:22;;;;;;;4.67;0.77;;;;;;;19.63;89.00;95479.63;4273828;33;20201;-59
2022/07/30 00:33:47;;;;;;;0.30;0.30;;;;;;;19.31;89.61;95481.47;4289042;33;20225;-60
2022/07/30 00:36:12;;;;;;;0.50;0.50;;;;;;;19.48;89.03;95481.16;4286376;33;20186;-59
2022/07/30 00:38:38;;;;;;;2.33;0.33;;;;;;;19.49;89.54;95480.03;4274012;33;20214;-59
2022/07/30 00:41:06;;;;;;;0.50;0.50;;;;;;;19.38;89.25;95477.03;4286137;33;20186;-60
2022/07/30 00:43:32;;;;;;;0.30;0.30;;;;;;;19.56;89.30;95464.84;4285964;33;20187;-59
2022/07/30 00:45:57;;;;;;;0.20;0.20;;;;;;;19.40;89.38;95474.00;4285797;33;20248;-59
2022/07/30 00:48:22;;;;;;;2.43;0.97;;;;;;;19.52;89.33;95471.31;4287925;33;20201;-59
2022/07/30 00:50:48;;;;;;;1.13;0.80;;;;;;;19.40;89.51;95466.72;4294774;33;20187;-59
2022/07/30 00:53:13;;;;;;;0.43;0.43;;;;;;;19.48;88.95;95465.00;4285415;33;20191;-60
2022/07/30 00:55:38;;;;;;;3.03;0.40;;;;;;;19.46;89.44;95461.88;4285311;33;20182;-59
2022/07/30 00:58:04;;;;;;;0.70;0.53;;;;;;;19.49;89.42;95463.88;4244011;33;20187;-59
2022/07/30 01:00:29;;;;;;;2.50;0.80;;;;;;;19.58;88.98;95469.09;4278794;33;20230;-59
2022/07/30 01:02:55;;;;;;;0.27;0.27;;;;;;;19.54;88.69;95469.00;4285544;33;20191;-59
2022/07/30 01:05:20;;;;;;;1.90;0.40;;;;;;;19.46;89.44;95469.94;4275515;33;20194;-60
2022/07/30 01:07:45;;;;;;;0.53;0.53;;;;;;;19.44;89.74;95461.44;4273380;33;20182;-59
2022/07/30 01:10:14;;;;;;;0.23;0.23;;;;;;;19.41;89.80;95470.97;4286708;33;20270;-59
2022/07/30 01:12:41;;;;;;;0.43;0.43;;;;;;;19.59;89.14;95467.97;4285997;33;20235;-59
2022/07/30 01:15:09;;;;;;;0.20;0.20;;;;;;;19.60;88.97;95462.25;4278473;33;20194;-59
2022/07/30 01:17:35;;;;;;;2.47;1.03;;;;;;;19.41;89.50;95462.12;4284411;33;20222;-59
2022/07/30 01:20:13;;;;;;;3.30;0.70;;;;;;;19.41;89.61;95462.12;4283397;33;20229;-60
2022/07/30 01:22:51;;;;;;;0.17;0.17;;;;;;;19.55;89.58;95463.28;4286757;33;20222;-59
2022/07/30 01:25:27;;;;;;;0.53;0.53;;;;;;;19.55;89.00;95460.59;4278737;33;20240;-59
2022/07/30 01:27:58;;;;;;;0.37;0.37;;;;;;;19.55;89.41;95454.44;4268515;33;20190;-59
2022/07/30 01:30:27;;;;;;;0.33;0.33;;;;;;;19.46;89.66;95451.13;4283049;33;20245;-59
2022/07/30 01:32:55;;;;;;;0.30;0.30;;;;;;;19.60;89.26;95450.69;4284782;33;20322;-59
2022/07/30 01:35:24;;;;;;;0.43;0.43;;;;;;;19.42;89.42;95447.53;4269279;33;20194;-60
2022/07/30 01:37:51;;;;;;;0.43;0.43;;;;;;;19.45;89.75;95438.78;4277174;33;20222;-59
2022/07/30 01:40:18;;;;;;;0.47;0.47;;;;;;;19.47;89.35;95442.69;4273057;33;20257;-59
2022/07/30 01:42:45;;;;;;;0.43;0.43;;;;;;;19.58;89.48;95442.19;4286225;33;20203;-60
2022/07/30 01:45:12;;;;;;;0.20;0.20;;;;;;;19.62;89.66;95446.53;4273453;33;20198;-59
2022/07/30 01:47:41;;;;;;;0.60;0.60;;;;;;;19.56;89.46;95450.63;4284148;33;20277;-59
2022/07/30 01:50:12;;;;;;;0.30;0.30;;;;;;;19.35;90.03;95444.66;4282603;33;20183;-59
2022/07/30 01:52:40;;;;;;;0.20;0.20;;;;;;;19.41;90.10;95448.66;4281249;33;20246;-59
2022/07/30 01:55:09;;;;;;;0.30;0.30;;;;;;;19.36;90.19;95441.63;4277909;33;20214;-60
2022/07/30 01:57:37;;;;;;;1.13;0.70;;;;;;;19.40;90.08;95441.72;4282922;33;20267;-59
2022/07/30 02:00:05;;;;;;;1.40;0.60;;;;;;;19.39;89.62;95449.00;4282782;33;20281;-59
2022/07/30 02:02:33;;;;;;;0.53;0.53;;;;;;;19.40;90.08;95444.41;4282803;33;20213;-59
2022/07/30 02:04:59;;;;;;;0.93;0.73;;;;;;;19.43;89.99;95441.81;4278609;33;20174;-59
2022/07/30 02:07:40;;;;;;;0.30;0.30;;;;;;;19.51;89.87;95445.50;4259356;33;20239;-59
2022/07/30 02:10:23;;;;;;;0.40;0.40;;;;;;;19.60;89.62;95445.31;4272233;33;20232;-59
2022/07/30 02:12:55;;;;;;;0.50;0.50;;;;;;;19.61;89.16;95444.97;4285869;33;20183;-59
2022/07/30 02:15:36;;;;;;;0.13;0.13;;;;;;;19.33;88.05;95441.56;4283116;33;20182;-59
2022/07/30 02:19:01;;;;;;;0.40;0.40;;;;;;;19.42;89.53;95442.16;4258230;33;20202;-60
2022/07/30 02:21:30;;;;;;;0.40;0.40;;;;;;;19.40;89.88;95439.03;4227459;33;20380;-60
2022/07/30 02:23:57;;;;;;;0.50;0.50;;;;;;;19.43;88.98;95446.41;4225214;33;20331;-59
2022/07/30 02:26:25;;;;;;;0.50;0.50;;;;;;;19.40;89.09;95444.41;4259445;33;20182;-59
2022/07/30 02:28:55;;;;;;;0.60;0.60;;;;;;;19.46;88.58;95440.34;4267049;33;20234;-59
2022/07/30 02:31:25;;;;;;;0.40;0.40;;;;;;;19.33;88.12;95450.37;4275143;33;20199;-58
2022/07/30 02:33:56;;;;;;;0.50;0.50;;;;;;;19.23;89.66;95448.22;4273588;33;20301;-59
2022/07/30 02:36:24;;;;;;;0.30;0.30;;;;;;;19.44;89.82;95447.97;4269658;33;20183;-62
2022/07/30 02:38:51;;;;;;;0.40;0.40;;;;;;;19.34;89.33;95449.25;4273607;33;20214;-59
2022/07/30 02:41:19;;;;;;;0.33;0.33;;;;;;;19.50;89.63;95446.62;4281381;33;20197;-59
2022/07/30 02:43:46;;;;;;;0.30;0.30;;;;;;;19.34;87.68;95445.78;4267577;33;20230;-59
2022/07/30 02:46:16;;;;;;;0.50;0.50;;;;;;;19.20;88.37;95455.06;4256331;33;20270;-60
2022/07/30 02:48:43;;;;;;;0.20;0.20;;;;;;;19.03;89.20;95454.59;4269398;33;20278;-59
2022/07/30 02:51:09;;;;;;;0.80;0.80;;;;;;;19.27;89.21;95459.06;4282786;33;20233;-59
2022/07/30 02:53:37;;;;;;;0.60;0.60;;;;;;;19.28;88.56;95460.66;4275247;33;20237;-59
2022/07/30 02:56:06;;;;;;;0.30;0.30;;;;;;;19.41;88.73;95441.38;4278707;33;20221;-59
2022/07/30 02:58:36;;;;;;;0.40;0.40;;;;;;;19.34;88.36;95443.87;4282990;33;20212;-59
2022/07/30 03:01:06;;;;;;;0.60;0.60;;;;;;;19.19;88.38;95455.41;4273604;33;20237;-60
2022/07/30 03:03:33;;;;;;;0.57;0.57;;;;;;;19.01;89.09;95446.88;4281943;33;20190;-59
2022/07/30 03:05:59;;;;;;;1.10;1.10;;;;;;;19.11;88.22;95443.69;4281843;33;20241;-60
2022/07/30 03:08:27;;;;;;;0.77;0.77;;;;;;;19.14;88.67;95444.91;4284945;33;20258;-59
2022/07/30 03:10:55;;;;;;;0.70;0.70;;;;;;;19.12;88.74;95447.94;4276138;33;20187;-60
2022/07/30 03:13:21;;;;;;;0.40;0.40;;;;;;;19.07;88.76;95439.34;4290187;33;20234;-59
2022/07/30 03:15:49;;;;;;;0.50;0.50;;;;;;;19.10;88.29;95442.13;4285129;33;20197;-59
2022/07/30 03:18:17;;;;;;;0.50;0.50;;;;;;;19.14;88.41;95445.69;4274491;33;20239;-59
2022/07/30 03:20:46;;;;;;;0.30;0.30;;;;;;;19.17;88.21;95433.44;4277356;33;20269;-59
2022/07/30 03:23:15;;;;;;;0.70;0.70;;;;;;;19.20;88.79;95435.47;4284601;33;20205;-59
2022/07/30 03:25:44;;;;;;;0.53;0.53;;;;;;;19.25;88.36;95429.84;4285659;33;20274;-59
2022/07/30 03:28:10;;;;;;;0.67;0.67;;;;;;;19.13;87.65;95433.34;4288978;33;20214;-59
2022/07/30 03:30:36;;;;;;;0.50;0.50;;;;;;;19.04;87.78;95440.03;4272995;33;20209;-59
2022/07/30 03:33:02;;;;;;;0.33;0.33;;;;;;;19.13;88.54;95436.03;4286291;33;20198;-59
2022/07/30 03:35:28;;;;;;;0.77;0.77;;;;;;;19.19;88.57;95439.28;4289946;33;20182;-60
2022/07/30 03:37:54;;;;;;;0.67;0.67;;;;;;;19.39;87.88;95442.84;4283865;33;20197;-59
2022/07/30 03:40:22;;;;;;;0.50;0.50;;;;;;;19.30;87.77;95437.66;4288364;33;20269;-60
2022/07/30 03:42:48;;;;;;;0.30;0.30;;;;;;;19.45;88.17;95438.78;4285240;33;20201;-59
2022/07/30 03:45:14;;;;;;;0.47;0.47;;;;;;;19.24;88.11;95441.72;4273712;33;20186;-59
2022/07/30 03:47:41;;;;;;;0.87;0.87;;;;;;;19.33;88.07;95455.78;4285061;33;20205;-60
2022/07/30 03:50:08;;;;;;;0.60;0.60;;;;;;;19.36;87.28;95457.00;4272179;33;20262;-60
2022/07/30 03:52:37;;;;;;;0.57;0.57;;;;;;;19.43;87.19;95449.91;4284487;33;20183;-59
2022/07/30 03:55:04;;;;;;;0.40;0.40;;;;;;;19.49;86.79;95453.91;4275019;33;20218;-59
2022/07/30 03:57:29;;;;;;;0.67;0.67;;;;;;;19.36;86.82;95457.00;4286658;33;20205;-59
2022/07/30 03:59:55;;;;;;;0.50;0.50;;;;;;;19.17;86.33;95457.66;4287376;33;20187;-60
2022/07/30 04:02:20;;;;;;;1.50;0.70;;;;;;;19.26;87.75;95463.69;4289147;33;20183;-59
2022/07/30 04:04:46;;;;;;;0.57;0.57;;;;;;;19.25;88.25;95466.72;4289045;33;20201;-59
2022/07/30 04:07:11;;;;;;;0.83;0.83;;;;;;;19.31;87.91;95465.34;4286756;33;20278;-59
2022/07/30 04:09:36;;;;;;;1.03;1.03;;;;;;;19.27;87.77;95472.53;4286523;33;20191;-60
2022/07/30 04:12:02;;;;;;;0.60;0.60;;;;;;;19.25;88.15;95472.87;4286930;33;20278;-59
2022/07/30 04:14:42;;;;;;;0.67;0.67;;;;;;;19.21;87.18;95480.06;4286875;33;20225;-59
2022/07/30 04:17:21;;;;;;;1.10;0.97;;;;;;;19.26;87.00;95474.44;4285609;33;20209;-60
2022/07/30 04:20:06;;;;;;;1.17;1.07;;;;;;;19.25;86.57;95488.22;4286274;33;20200;-59
2022/07/30 04:22:34;;;;;;;0.73;0.70;;;;;;;19.05;87.49;95490.78;4286351;33;20210;-59
2022/07/30 04:25:01;;;;;;;1.23;1.23;;;;;;;19.10;88.71;95493.25;4285650;33;20170;-59
2022/07/30 04:27:28;;;;;;;1.07;0.97;;;;;;;19.09;87.18;95499.75;4273909;33;20199;-59
2022/07/30 04:29:54;;;;;;;0.93;0.93;;;;;;;18.96;87.07;95495.53;4286031;33;20183;-60
2022/07/30 04:32:20;;;;;;;5.27;1.10;;;;;;;18.95;87.86;95503.94;4287054;33;20191;-59
2022/07/30 04:34:50;;;;;;;2.10;1.50;;;;;;;19.00;87.85;95501.78;4272295;33;20186;-59
2022/07/30 04:37:17;;;;;;;0.60;0.60;;;;;;;18.95;87.20;95502.03;4280418;33;20285;-59
2022/07/30 04:39:43;;;;;;;0.60;0.60;;;;;;;18.90;87.94;95506.88;4284161;33;20238;-59
2022/07/30 04:42:09;;;;;;;1.10;1.10;;;;;;;18.80;87.94;95513.50;4284173;33;20242;-59
2022/07/30 04:44:35;;;;;;;0.70;0.70;;;;;;;18.98;88.29;95514.78;4275863;33;20174;-59
2022/07/30 04:47:00;;;;;;;1.07;1.07;;;;;;;18.86;87.82;95517.53;4288293;33;20239;-59
2022/07/30 04:49:27;;;;;;;0.40;0.40;;;;;;;18.87;88.37;95522.56;4270545;33;20207;-60
2022/07/30 04:51:54;;;;;;;0.50;0.50;;;;;;;18.97;87.16;95523.19;4283858;33;20202;-60
2022/07/30 04:54:22;;;;;;;3.50;0.73;;;;;;;19.03;88.17;95519.94;4289761;33;20179;-59
2022/07/30 04:56:48;;;;;;;0.83;0.83;;;;;;;19.08;87.54;95519.69;4288225;33;20309;-59
2022/07/30 04:59:16;;;;;;;1.20;1.20;;;;;;;19.14;87.11;95523.69;4284482;33;20201;-59
2022/07/30 05:01:44;;;;;;;1.00;1.00;;;;;;;19.08;87.14;95522.38;4272290;33;20245;-59
2022/07/30 05:04:11;;;;;;;0.70;0.70;;;;;;;19.06;87.02;95518.47;4273852;33;20210;-60
2022/07/30 05:06:38;;;;;;;0.67;0.67;;;;;;;19.08;86.53;95527.75;4272569;33;20229;-59
2022/07/30 05:09:05;;;;;;;1.17;1.07;;;;;;;19.07;86.77;95520.81;4287129;33;20193;-59
2022/07/30 05:11:30;;;;;;;0.70;0.70;;;;;;;19.25;87.45;95520.50;4277813;33;20179;-59
2022/07/30 05:13:56;;;;;;;0.97;0.97;;;;;;;19.09;86.17;95512.41;4277193;33;20194;-59
2022/07/30 05:16:21;;;;;;;0.53;0.53;;;;;;;19.19;86.63;95523.44;4291969;33;20187;-59
2022/07/30 05:18:47;;;;;;;0.63;0.63;;;;;;;19.15;86.64;95522.56;4286919;33;20191;-59
2022/07/30 05:21:12;;;;;;;0.60;0.60;;;;;;;19.03;86.49;95519.94;4288621;33;20186;-59
2022/07/30 05:23:38;;;;;;;1.27;1.27;;;;;;;19.12;86.36;95528.63;4285154;33;20238;-59
2022/07/30 05:26:06;;;;;;;1.10;1.10;;;;;;;19.22;87.12;95533.53;4288274;33;20266;-59
2022/07/30 05:28:31;;;;;;;0.60;0.60;;;;;;;19.22;86.29;95528.13;4284719;33;20202;-59
2022/07/30 05:30:57;;;;;;;0.53;0.53;;;;;;;19.17;86.41;95533.75;4286542;33;20246;-59
2022/07/30 05:33:22;;;;;;;1.07;0.97;;;;;;;19.17;86.88;95535.66;4276641;33;20211;-60
2022/07/30 05:35:48;;;;;;;0.90;0.90;;;;;;;19.15;86.10;95536.00;4294626;33;20183;-60
2022/07/30 05:38:15;;;;;;;0.60;0.60;;;;;;;19.14;86.38;95539.81;4277347;33;20182;-59
2022/07/30 05:40:40;;;;;;;1.70;0.80;;;;;;;19.00;86.28;95535.97;4293351;33;20205;-60
2022/07/30 05:43:06;;;;;;;0.40;0.40;;;;;;;19.28;87.07;95539.44;4272897;33;20210;-59
2022/07/30 05:45:31;;;;;;;1.03;1.03;;;;;;;19.28;86.97;95535.97;4285893;33;20209;-60
2022/07/30 05:47:57;;;;;;;0.87;0.87;;;;;;;19.15;84.96;95538.69;4293504;33;20182;-60
2022/07/30 05:50:22;;;;;;;0.77;0.77;;;;;;;19.20;85.59;95535.78;4274642;33;20187;-64
2022/07/30 05:52:48;;;;;;;1.03;1.03;;;;;;;19.25;86.04;95542.81;4286240;33;20201;-59
2022/07/30 05:55:13;;;;;;;0.50;0.50;;;;;;;19.25;85.50;95550.87;4273122;33;20186;-59
2022/07/30 05:57:40;;;;;;;1.00;1.00;;;;;;;19.27;86.87;95558.63;4272350;33;20218;-59
2022/07/30 06:00:08;;;;;;;0.90;0.90;;;;;;;19.22;85.73;95555.03;4271773;33;20171;-60
2022/07/30 06:02:33;;;;;;;0.77;0.77;;;;;;;19.26;85.28;95549.75;4283009;33;20200;-59
2022/07/30 06:04:59;;;;;;;0.80;0.80;;;;;;;19.14;84.73;95552.47;4272183;33;20174;-59
2022/07/30 06:07:25;;;;;;;5.97;1.23;;;;;;;18.97;85.30;95552.78;4276032;33;20233;-60
2022/07/30 06:09:50;;;;;;;0.80;0.80;;;;;;;19.19;85.53;95554.94;4295997;33;20202;-59
2022/07/30 06:12:16;;;;;;;1.50;1.00;;;;;;;19.09;84.40;95566.19;4271912;33;20189;-59
2022/07/30 06:14:42;;;;;;;1.20;1.20;;;;;;;19.13;87.17;95567.84;4288639;33;20183;-61
2022/07/30 06:17:07;;;;;;;1.13;1.13;;;;;;;19.20;84.44;95568.06;4270509;33;20199;-59
2022/07/30 06:19:32;;;;;;;0.73;0.73;;;;;;;19.12;85.29;95570.91;4289253;33;20187;-59
2022/07/30 06:21:58;;;;;;;0.73;0.73;;;;;;;19.11;85.25;95572.03;4284022;33;20218;-60
2022/07/30 06:24:23;;;;;;;15.70;1.60;;;;;;;19.26;84.59;95567.81;4289621;33;20221;-60
2022/07/30 06:26:48;;;;;;;0.90;0.90;;;;;;;19.30;84.52;95572.19;4287733;33;20221;-59
2022/07/30 06:29:14;;;;;;;1.27;1.23;;;;;;;19.49;85.85;95582.28;4272784;33;20234;-60
2022/07/30 06:31:40;;;;;;;0.60;0.60;;;;;;;19.48;84.15;95578.03;4283649;33;20182;-60
2022/07/30 06:34:06;;;;;;;0.80;0.80;;;;;;;19.53;85.44;95588.59;4271714;33;20171;-59
2022/07/30 06:36:31;;;;;;;1.77;1.20;;;;;;;19.46;83.45;95588.34;4276972;33;20211;-59
2022/07/30 06:38:56;;;;;;;1.50;1.43;;;;;;;19.40;84.39;95587.03;4283909;33;20190;-59
2022/07/30 06:41:22;;;;;;;8.43;1.27;;;;;;;19.50;84.56;95590.06;4289141;33;20175;-59
2022/07/30 06:43:47;;;;;;;0.43;0.43;;;;;;;19.54;83.51;95596.28;4291077;33;20182;-59
2022/07/30 06:46:13;;;;;;;0.90;0.90;;;;;;;19.42;83.22;95603.63;4272611;33;20280;-59
2022/07/30 06:48:38;;;;;;;1.20;1.20;;;;;;;19.44;84.37;95599.47;4286696;33;20191;-59
2022/07/30 06:51:04;;;;;;;0.93;0.93;;;;;;;19.50;82.20;95602.72;4268756;33;20205;-60
2022/07/30 06:53:29;;;;;;;1.37;1.37;;;;;;;19.45;82.47;95605.63;4271422;33;20280;-59
2022/07/30 06:55:55;;;;;;;0.67;0.67;;;;;;;19.33;83.02;95597.63;4281187;33;20179;-59
2022/07/30 06:58:20;;;;;;;1.43;1.43;;;;;;;19.28;83.24;95605.94;4277797;33;20179;-59
2022/07/30 07:00:45;;;;;;;0.90;0.90;;;;;;;19.32;84.58;95617.56;4284601;33;20186;-58
2022/07/30 07:03:11;;;;;;;1.47;1.47;;;;;;;19.22;83.43;95622.28;4282748;33;20182;-60
2022/07/30 07:05:36;;;;;;;1.17;1.17;;;;;;;19.38;84.56;95616.19;4284911;33;20268;-59
2022/07/30 07:08:02;;;;;;;1.43;1.33;;;;;;;19.33;83.13;95616.44;4285473;33;20187;-60
2022/07/30 07:10:27;;;;;;;5.40;1.87;;;;;;;19.52;82.69;95617.41;4282217;33;20183;-60
2022/07/30 07:12:53;;;;;;;1.00;1.00;;;;;;;19.73;83.84;95614.53;4287333;33;20199;-59
2022/07/30 07:15:18;;;;;;;0.97;0.97;;;;;;;19.69;81.54;95616.31;4285619;33;20226;-59
2022/07/30 07:17:44;;;;;;;1.07;1.07;;;;;;;19.87;82.70;95617.56;4271634;33;20209;-59
2022/07/30 07:20:09;;;;;;;1.07;1.07;;;;;;;19.97;80.77;95610.87;4282128;33;20201;-59
2022/07/30 07:22:35;;;;;;;1.80;1.70;;;;;;;19.96;80.25;95617.41;4275727;33;20182;-59
2022/07/30 07:25:00;;;;;;;1.40;1.30;;;;;;;19.90;80.72;95616.88;4286853;33;20205;-59
2022/07/30 07:27:26;;;;;;;1.10;1.10;;;;;;;20.02;81.08;95617.94;4273460;33;20220;-59
2022/07/30 07:29:51;;;;;;;1.53;1.53;;;;;;;20.16;80.38;95611.00;4292816;33;20200;-59
2022/07/30 07:32:17;;;;;;;1.40;1.40;;;;;;;20.08;79.81;95617.34;4284178;33;20171;-59
2022/07/30 07:34:42;;;;;;;1.13;0.93;;;;;;;20.07;79.59;95618.47;4288143;33;20269;-60
2022/07/30 07:37:08;;;;;;;1.77;1.67;;;;;;;20.20;79.73;95608.38;4290813;33;20182;-59
2022/07/30 07:39:33;;;;;;;1.00;1.00;;;;;;;20.39;79.16;95613.88;4272264;33;20233;-59
2022/07/30 07:41:58;;;;;;;1.20;1.20;;;;;;;20.40;79.13;95607.38;4289356;33;20256;-59
2022/07/30 07:44:24;;;;;;;3.50;2.20;;;;;;;20.55;78.04;95605.81;4287709;33;20207;-59
2022/07/30 07:46:49;;;;;;;2.20;1.60;;;;;;;20.63;77.59;95599.44;4287359;33;20188;-59
2022/07/30 07:49:14;;;;;;;1.67;1.57;;;;;;;20.73;78.44;95603.53;4285119;33;20212;-60
2022/07/30 07:51:40;;;;;;;2.17;1.40;;;;;;;20.72;78.64;95602.75;4287879;33;20197;-59
2022/07/30 07:54:05;;;;;;;2.20;1.37;;;;;;;20.80;78.88;95599.06;4289218;33;20195;-60
2022/07/30 07:56:31;;;;;;;3.03;1.87;;;;;;;20.95;76.35;95594.78;4287558;33;20186;-60
2022/07/30 07:58:56;;;;;;;1.23;1.23;;;;;;;20.85;76.38;95598.00;4288494;33;20261;-60
2022/07/30 08:01:22;;;;;;;1.30;1.30;;;;;;;20.63;77.60;95594.03;4288152;33;20230;-59
2022/07/30 08:03:47;;;;;;;1.53;1.53;;;;;;;20.72;76.73;95585.78;4276745;33;20209;-59
2022/07/30 08:06:13;;;;;;;1.73;1.73;;;;;;;20.84;77.33;95599.12;4286191;33;20317;-60
2022/07/30 08:08:38;;;;;;;0.90;0.90;;;;;;;20.87;75.55;95593.81;4286872;33;20174;-60
2022/07/30 08:11:05;;;;;;;1.33;1.23;;;;;;;20.98;77.61;95602.16;4285671;33;20198;-59
2022/07/30 08:13:31;;;;;;;1.17;1.17;;;;;;;21.04;75.67;95603.44;4274153;33;20237;-61
2022/07/30 08:15:57;;;;;;;1.60;1.60;;;;;;;21.18;75.23;95603.75;4286054;33;20183;-59
2022/07/30 08:18:22;;;;;;;2.20;1.90;;;;;;;21.10;75.67;95607.41;4289296;33;20282;-59
2022/07/30 08:20:49;;;;;;;1.30;1.30;;;;;;;21.00;75.09;95610.66;4287370;33;20183;-60
2022/07/30 08:23:14;;;;;;;1.50;1.40;;;;;;;20.92;74.62;95611.66;4287681;33;20179;-60
2022/07/30 08:25:40;;;;;;;1.63;1.53;;;;;;;21.04;74.84;95614.22;4273678;33;20257;-60
2022/07/30 08:28:05;;;;;;;1.27;1.27;;;;;;;21.04;73.46;95608.81;4289257;33;20253;-58
2022/07/30 08:30:30;;;;;;;1.30;1.30;;;;;;;21.08;72.96;95607.00;4288422;33;20190;-59
2022/07/30 08:32:56;;;;;;;1.57;1.47;;;;;;;21.17;73.23;95612.19;4289068;33;20190;-59
2022/07/30 08:35:21;;;;;;;4.57;2.33;;;;;;;21.20;73.18;95619.59;4272431;33;20226;-59
2022/07/30 08:37:47;;;;;;;3.57;2.03;;;;;;;21.22;71.35;95626.19;4271972;33;20190;-59
2022/07/30 08:40:12;;;;;;;1.07;1.07;;;;;;;21.27;71.23;95619.75;4285967;33;20744;-59
2022/07/30 08:42:38;;;;;;;1.97;1.87;;;;;;;21.38;70.96;95617.28;4287425;33;20191;-59
2022/07/30 08:45:05;;;;;;;4.13;1.50;;;;;;;21.47;69.59;95610.53;4272880;33;20242;-58
2022/07/30 08:47:32;;;;;;;1.03;1.03;;;;;;;21.54;71.32;95616.06;4286253;33;20186;-59
2022/07/30 08:50:03;;;;;;;2.00;1.80;;;;;;;21.59;70.20;95612.31;4275639;33;20207;-59
2022/07/30 08:52:34;;;;;;;1.60;1.50;;;;;;;21.67;70.68;95616.69;4272781;33;20183;-59
2022/07/30 08:54:59;;;;;;;1.00;1.00;;;;;;;21.78;68.77;95608.81;4285615;33;20222;-59
2022/07/30 08:57:28;;;;;;;1.00;1.00;;;;;;;21.82;68.97;95613.13;4274219;33;20233;-59
2022/07/30 08:59:55;;;;;;;1.60;1.27;;;;;;;21.84;67.64;95613.53;4272699;33;20209;-60
2022/07/30 09:02:20;;;;;;;1.33;1.23;;;;;;;21.93;66.12;95605.22;4286955;33;20182;-59
2022/07/30 09:04:45;;;;;;;0.83;0.83;;;;;;;22.00;67.60;95605.38;4288146;33;20206;-60
2022/07/30 09:07:11;;;;;;;0.93;0.93;;;;;;;22.01;65.99;95615.06;4272146;33;20213;-59
2022/07/30 09:09:36;;;;;;;0.87;0.87;;;;;;;22.06;65.39;95613.97;4289712;33;20234;-59
2022/07/30 09:12:23;;;;;;;1.77;1.60;;;;;;;22.04;66.43;95617.00;4284550;33;20200;-59
2022/07/30 09:15:03;;;;;;;0.90;0.90;;;;;;;22.08;65.57;95612.47;4284686;33;20191;-59
2022/07/30 09:17:46;;;;;;;0.70;0.70;;;;;;;22.13;64.89;95608.69;4286967;33;20189;-59
2022/07/30 09:20:12;;;;;;;1.47;1.47;;;;;;;22.21;64.66;95610.37;4277357;33;20178;-59
2022/07/30 09:22:52;;;;;;;0.70;0.70;;;;;;;22.18;65.67;95616.50;4271711;33;20205;-59
2022/07/30 09:25:40;;;;;;;2.83;1.33;;;;;;;22.31;63.85;95612.47;4291803;33;20200;-59
2022/07/30 09:28:08;;;;;;;0.90;0.90;;;;;;;22.34;62.84;95609.03;4289816;33;20208;-59
2022/07/30 09:30:52;;;;;;;0.90;0.90;;;;;;;22.37;62.90;95613.72;4295263;33;20183;-59
2022/07/30 09:33:38;;;;;;;0.90;0.90;;;;;;;22.32;63.00;95610.53;4285769;33;20214;-59
2022/07/30 09:36:10;;;;;;;0.63;0.63;;;;;;;22.39;63.33;95629.59;4284634;33;20183;-59
2022/07/30 09:38:46;;;;;;;0.60;0.60;;;;;;;22.41;62.58;95620.00;4275951;33;20213;-59
2022/07/30 09:41:12;;;;;;;0.80;0.80;;;;;;;22.48;61.39;95625.50;4285141;33;20182;-59
2022/07/30 09:43:51;;;;;;;0.73;0.73;;;;;;;22.57;61.06;95611.72;4284461;33;20195;-59
2022/07/30 09:46:17;;;;;;;0.87;0.87;;;;;;;22.50;62.29;95615.09;4286323;33;20186;-58
2022/07/30 09:48:45;;;;;;;0.97;0.97;;;;;;;22.56;62.11;95608.25;4285849;33;20202;-59
2022/07/30 09:51:11;;;;;;;1.43;1.33;;;;;;;22.47;63.22;95615.81;4273051;33;20187;-59
2022/07/30 09:53:53;;;;;;;0.70;0.70;;;;;;;22.47;61.76;95613.09;4284300;33;20198;-59
2022/07/30 09:56:27;;;;;;;0.60;0.60;;;;;;;22.51;60.30;95619.37;4287942;33;20195;-59
2022/07/30 09:58:52;;;;;;;1.50;1.10;;;;;;;22.51;60.72;95611.25;4268419;33;20213;-59
2022/07/30 10:01:18;;;;;;;0.97;0.97;;;;;;;22.62;59.58;95614.91;4288578;33;20190;-58
2022/07/30 10:03:44;;;;;;;0.77;0.77;;;;;;;22.64;60.60;95614.56;4284924;33;20290;-58
2022/07/30 10:06:10;;;;;;;0.70;0.70;;;;;;;22.75;60.57;95598.47;4294280;33;20320;-59
2022/07/30 10:08:43;;;;;;;1.10;1.10;;;;;;;22.76;58.32;95611.63;4289203;33;20210;-59
2022/07/30 10:11:14;;;;;;;0.70;0.70;;;;;;;22.72;57.96;95599.19;4292939;33;20190;-58
2022/07/30 10:13:40;;;;;;;0.70;0.67;;;;;;;22.73;56.63;95615.06;4284786;33;20194;-59
2022/07/30 10:16:07;;;;;;;2.10;0.87;;;;;;;22.76;58.48;95605.44;4289038;33;20213;-58
2022/07/30 10:18:33;;;;;;;0.50;0.50;;;;;;;22.88;57.61;95611.44;4275406;33;20194;-59
2022/07/30 10:21:00;;;;;;;0.87;0.87;;;;;;;22.93;56.98;95607.66;4289023;33;20273;-59
2022/07/30 10:23:28;;;;;;;0.50;0.50;;;;;;;22.67;57.44;95610.31;4285132;33;20183;-58
2022/07/30 10:25:59;;;;;;;0.60;0.60;;;;;;;22.44;57.70;95608.44;4271178;33;20235;-59
2022/07/30 10:28:25;;;;;;;0.80;0.80;;;;;;;22.48;57.10;95611.97;4288504;33;20230;-59
2022/07/30 10:30:53;;;;;;;0.60;0.60;;;;;;;22.63;56.61;95608.38;4274206;33;20193;-59
2022/07/30 10:33:22;;;;;;;0.33;0.33;;;;;;;22.72;54.11;95613.50;4290594;33;20190;-58
2022/07/30 10:35:47;;;;;;;0.63;0.63;;;;;;;22.80;52.02;95603.59;4285776;33;20191;-59
2022/07/30 10:38:14;;;;;;;3.67;1.53;;;;;;;22.96;52.35;95604.22;4283772;33;20344;-58
2022/07/30 10:41:00;;;;;;;0.57;0.57;;;;;;;23.08;54.44;95603.97;4257388;33;20339;-58
2022/07/30 10:43:40;;;;;;;0.60;0.60;;;;;;;23.16;54.79;95607.56;4281467;33;20194;-59
2022/07/30 10:46:19;;;;;;;0.50;0.50;;;;;;;23.03;54.45;95617.06;4297378;33;20186;-60
2022/07/30 10:48:45;;;;;;;0.83;0.60;;;;;;;22.98;53.00;95607.34;4283411;33;20233;-59
2022/07/30 10:51:10;;;;;;;0.40;0.40;;;;;;;22.94;52.87;95609.22;4288336;33;20237;-58
2022/07/30 10:53:40;;;;;;;0.47;0.47;;;;;;;22.94;53.08;95610.00;4286471;33;20195;-58
2022/07/30 10:56:22;;;;;;;0.60;0.60;;;;;;;22.83;54.67;95609.06;4275522;33;20234;-58
2022/07/30 10:59:10;;;;;;;0.40;0.40;;;;;;;22.94;53.83;95598.38;4290900;33;20196;-58
2022/07/30 11:01:47;;;;;;;0.30;0.30;;;;;;;23.10;53.49;95611.75;4280145;33;20186;-60
2022/07/30 11:04:26;;;;;;;0.63;0.63;;;;;;;23.23;52.65;95611.16;4287926;33;20186;-60
2022/07/30 11:07:17;;;;;;;0.47;0.47;;;;;;;23.44;50.71;95613.38;4281792;33;20277;-58
2022/07/30 11:09:42;;;;;;;0.40;0.30;;;;;;;23.44;50.88;95613.38;4268797;33;20249;-59
2022/07/30 11:12:09;;;;;;;0.33;0.33;;;;;;;23.41;51.34;95618.72;4265054;33;20205;-59
2022/07/30 11:14:46;;;;;;;1.27;0.50;;;;;;;23.19;51.95;95626.59;4273612;33;20192;-58
2022/07/30 11:17:16;;;;;;;0.10;0.10;;;;;;;23.24;50.64;95612.72;4286014;33;20189;-59
2022/07/30 11:20:19;;;;;;;0.80;0.80;;;;;;;23.31;50.12;95601.97;4298076;33;20201;-60
2022/07/30 11:22:47;;;;;;;0.20;0.20;;;;;;;23.52;50.88;95611.53;4240544;33;20246;-59
2022/07/30 11:25:28;;;;;;;0.77;0.77;;;;;;;23.60;50.63;95607.78;4272841;33;20197;-58
2022/07/30 11:27:53;;;;;;;0.53;0.53;;;;;;;23.52;50.71;95601.47;4284041;33;20183;-64
2022/07/30 11:30:18;;;;;;;3.23;0.40;;;;;;;23.45;50.78;95614.94;4265945;33;20187;-59
2022/07/30 11:32:49;;;;;;;1.00;0.90;;;;;;;23.42;49.88;95599.41;4280960;33;20191;-58
2022/07/30 11:35:24;;;;;;;0.30;0.30;;;;;;;23.46;50.02;95596.75;4285550;33;20266;-59
2022/07/30 11:38:31;;;;;;;0.83;0.83;;;;;;;23.58;50.46;95597.31;4285610;33;20249;-59
2022/07/30 11:40:56;;;;;;;0.60;0.60;;;;;;;23.51;51.75;95591.75;4270747;33;20204;-59